Urb Pastor Felix Rios Lopez, Puerto Rico
Current Conditions -  °F | °C
As of 9:07 AM on Thursday 30 Oct 2014 (Local Time) from TJNR Reporting Station
Broken Clouds Broken Clouds  
Wind Chill: 29°   Ceiling: 3500
Heat Index: 33°   Visibility: 10mi
Dew Point: 24°   Wind: 5mph
Humidity: 74%   Direction: 10°N
Pressure: 29.88"   Gusts: NA
Location:  18.2667°N, 65.6476°W
Report Text: TJNR 301307Z AUTO 01004KT 10SM FEW019 SCT025 BKN035 29/24 A2988 RMK AO2 T02890239 $
Loading
Personal Weather Stations






























Interactive Weather Map
Tropical Storm Tracking
New forecast layout! Learn more

10-Day Weather Forecast

Advertisements
Track Severe Weather on mobile